sensor_id;sensor_type;location;lat;lon;timestamp;pressure;altitude;pressure_sealevel;temperature;humidity
50430;BME280;36359;41.556;-8.418;2023-11-22T00:00:10;61790.72;;;12.24;76.52
50430;BME280;36359;41.556;-8.418;2023-11-22T00:02:37;61765.63;;;12.00;75.96
50430;BME280;36359;41.556;-8.418;2023-11-22T00:05:03;61750.13;;;11.88;76.89
50430;BME280;36359;41.556;-8.418;2023-11-22T00:07:31;61714.91;;;11.54;78.16
50430;BME280;36359;41.556;-8.418;2023-11-22T00:09:57;61722.41;;;11.59;79.52
50430;BME280;36359;41.556;-8.418;2023-11-22T00:12:24;61716.56;;;11.51;80.24
50430;BME280;36359;41.556;-8.418;2023-11-22T00:14:50;61712.78;;;11.50;80.10
50430;BME280;36359;41.556;-8.418;2023-11-22T00:17:17;61713.88;;;11.48;81.03
50430;BME280;36359;41.556;-8.418;2023-11-22T00:19:43;61720.31;;;11.52;80.84
50430;BME280;36359;41.556;-8.418;2023-11-22T00:22:10;61717.63;;;11.49;80.70
50430;BME280;36359;41.556;-8.418;2023-11-22T00:24:40;61736.25;;;11.72;82.88
50430;BME280;36359;41.556;-8.418;2023-11-22T00:27:07;61745.34;;;11.78;81.18
50430;BME280;36359;41.556;-8.418;2023-11-22T00:29:33;61719.19;;;11.56;79.78
50430;BME280;36359;41.556;-8.418;2023-11-22T00:31:58;61694.69;;;11.30;80.28
50430;BME280;36359;41.556;-8.418;2023-11-22T00:34:25;61711.19;;;11.48;86.23
50430;BME280;36359;41.556;-8.418;2023-11-22T00:36:52;61713.34;;;11.50;83.62
50430;BME280;36359;41.556;-8.418;2023-11-22T00:39:18;61758.19;;;11.91;87.08
50430;BME280;36359;41.556;-8.418;2023-11-22T00:41:44;61736.84;;;11.68;82.38
50430;BME280;36359;41.556;-8.418;2023-11-22T00:44:11;61700.50;;;11.38;81.27
50430;BME280;36359;41.556;-8.418;2023-11-22T00:46:36;61710.69;;;11.45;88.75
50430;BME280;36359;41.556;-8.418;2023-11-22T00:49:05;61734.13;;;11.70;93.44
50430;BME280;36359;41.556;-8.418;2023-11-22T00:51:32;61741.59;;;11.77;84.35
50430;BME280;36359;41.556;-8.418;2023-11-22T00:53:58;61701.09;;;11.36;83.39
50430;BME280;36359;41.556;-8.418;2023-11-22T00:56:25;61668.00;;;11.07;84.31
50430;BME280;36359;41.556;-8.418;2023-11-22T00:58:51;61666.91;;;11.06;84.77
50430;BME280;36359;41.556;-8.418;2023-11-22T01:01:21;61716.03;;;11.50;83.54
50430;BME280;36359;41.556;-8.418;2023-11-22T01:03:47;61720.81;;;11.55;83.35
50430;BME280;36359;41.556;-8.418;2023-11-22T01:06:13;61757.09;;;11.92;84.00
50430;BME280;36359;41.556;-8.418;2023-11-22T01:08:39;61785.91;;;12.20;89.89
50430;BME280;36359;41.556;-8.418;2023-11-22T01:11:05;61760.34;;;11.90;81.02
50430;BME280;36359;41.556;-8.418;2023-11-22T01:13:32;61745.34;;;11.81;78.09
50430;BME280;36359;41.556;-8.418;2023-11-22T01:15:58;61779.53;;;12.09;77.24
50430;BME280;36359;41.556;-8.418;2023-11-22T01:18:24;61778.44;;;12.13;82.08
50430;BME280;36359;41.556;-8.418;2023-11-22T01:20:50;61776.84;;;12.09;80.08
50430;BME280;36359;41.556;-8.418;2023-11-22T01:23:16;61774.72;;;12.09;80.73
50430;BME280;36359;41.556;-8.418;2023-11-22T01:25:41;61748.03;;;11.81;82.38
50430;BME280;36359;41.556;-8.418;2023-11-22T01:28:07;61749.66;;;11.80;83.00
50430;BME280;36359;41.556;-8.418;2023-11-22T01:30:34;61781.63;;;12.16;86.63
50430;BME280;36359;41.556;-8.418;2023-11-22T01:33:00;61797.16;;;12.28;79.16
50430;BME280;36359;41.556;-8.418;2023-11-22T01:35:26;61793.38;;;12.27;79.90
50430;BME280;36359;41.556;-8.418;2023-11-22T01:37:52;61798.75;;;12.30;84.61
50430;BME280;36359;41.556;-8.418;2023-11-22T01:40:17;61757.63;;;11.93;80.32
50430;BME280;36359;41.556;-8.418;2023-11-22T01:42:45;61736.84;;;11.68;80.14
50430;BME280;36359;41.556;-8.418;2023-11-22T01:45:11;61720.25;;;11.57;80.87
50430;BME280;36359;41.556;-8.418;2023-11-22T01:47:38;61745.84;;;11.81;82.04
50430;BME280;36359;41.556;-8.418;2023-11-22T01:50:06;61719.22;;;11.53;80.63
50430;BME280;36359;41.556;-8.418;2023-11-22T01:52:32;61759.75;;;11.95;86.30
50430;BME280;36359;41.556;-8.418;2023-11-22T01:54:58;61808.91;;;12.37;85.81
50430;BME280;36359;41.556;-8.418;2023-11-22T01:57:25;61833.44;;;12.65;83.44
50430;BME280;36359;41.556;-8.418;2023-11-22T01:59:51;61851.59;;;12.80;80.87
50430;BME280;36359;41.556;-8.418;2023-11-22T02:02:17;61855.88;;;12.84;80.11
50430;BME280;36359;41.556;-8.418;2023-11-22T02:04:42;61838.22;;;12.70;74.11
50430;BME280;36359;41.556;-8.418;2023-11-22T02:07:09;61799.81;;;12.31;76.14
50430;BME280;36359;41.556;-8.418;2023-11-22T02:09:35;61796.59;;;12.30;76.34
50430;BME280;36359;41.556;-8.418;2023-11-22T02:12:01;61792.84;;;12.26;77.17
50430;BME280;36359;41.556;-8.418;2023-11-22T02:14:27;61761.34;;;11.96;77.23
50430;BME280;36359;41.556;-8.418;2023-11-22T02:16:53;61738.91;;;11.77;77.79
50430;BME280;36359;41.556;-8.418;2023-11-22T02:19:18;61703.19;;;11.41;79.56
50430;BME280;36359;41.556;-8.418;2023-11-22T02:21:45;61688.81;;;11.24;80.66
50430;BME280;36359;41.556;-8.418;2023-11-22T02:24:12;61705.88;;;11.41;80.31
50430;BME280;36359;41.556;-8.418;2023-11-22T02:26:43;61743.75;;;11.77;82.30
50430;BME280;36359;41.556;-8.418;2023-11-22T02:29:09;61796.59;;;12.30;83.95
50430;BME280;36359;41.556;-8.418;2023-11-22T02:31:35;61804.09;;;12.32;81.10
50430;BME280;36359;41.556;-8.418;2023-11-22T02:34:00;61836.09;;;12.68;79.44
50430;BME280;36359;41.556;-8.418;2023-11-22T02:36:26;61823.28;;;12.56;79.25
50430;BME280;36359;41.556;-8.418;2023-11-22T02:38:52;61829.69;;;12.62;82.17
50430;BME280;36359;41.556;-8.418;2023-11-22T02:41:18;61822.22;;;12.55;78.59
50430;BME280;36359;41.556;-8.418;2023-11-22T02:43:44;61788.03;;;12.22;79.84
50430;BME280;36359;41.556;-8.418;2023-11-22T02:46:11;61783.28;;;12.15;77.82
50430;BME280;36359;41.556;-8.418;2023-11-22T02:48:37;61734.13;;;11.70;80.38
50430;BME280;36359;41.556;-8.418;2023-11-22T02:51:03;61712.75;;;11.52;80.70
50430;BME280;36359;41.556;-8.418;2023-11-22T02:53:29;61735.19;;;11.71;82.66
50430;BME280;36359;41.556;-8.418;2023-11-22T02:55:59;61734.19;;;11.65;82.96
50430;BME280;36359;41.556;-8.418;2023-11-22T02:58:28;61732.03;;;11.66;83.17
50430;BME280;36359;41.556;-8.418;2023-11-22T03:00:53;61726.13;;;11.63;83.78
50430;BME280;36359;41.556;-8.418;2023-11-22T03:03:20;61739.50;;;11.70;83.00
50430;BME280;36359;41.556;-8.418;2023-11-22T03:05:46;61722.94;;;11.59;87.15
50430;BME280;36359;41.556;-8.418;2023-11-22T03:08:11;61727.75;;;11.62;83.34
50430;BME280;36359;41.556;-8.418;2023-11-22T03:10:38;61737.88;;;11.74;85.21
50430;BME280;36359;41.556;-8.418;2023-11-22T03:13:04;61751.75;;;11.87;85.50
50430;BME280;36359;41.556;-8.418;2023-11-22T03:15:30;61735.19;;;11.71;82.85
50430;BME280;36359;41.556;-8.418;2023-11-22T03:17:58;61726.66;;;11.63;87.02
50430;BME280;36359;41.556;-8.418;2023-11-22T03:20:24;61734.16;;;11.68;82.70
50430;BME280;36359;41.556;-8.418;2023-11-22T03:22:50;61736.28;;;11.70;84.60
50430;BME280;36359;41.556;-8.418;2023-11-22T03:25:16;61720.25;;;11.57;83.71
50430;BME280;36359;41.556;-8.418;2023-11-22T03:27:42;61679.72;;;11.18;83.58
50430;BME280;36359;41.556;-8.418;2023-11-22T03:30:08;61663.72;;;11.03;84.63
50430;BME280;36359;41.556;-8.418;2023-11-22T03:32:40;61662.69;;;10.99;85.85
50430;BME280;36359;41.556;-8.418;2023-11-22T03:35:07;61646.69;;;10.84;86.86
50430;BME280;36359;41.556;-8.418;2023-11-22T03:37:34;61646.69;;;10.84;87.05
50430;BME280;36359;41.556;-8.418;2023-11-22T03:39:59;61664.31;;;10.98;87.41
50430;BME280;36359;41.556;-8.418;2023-11-22T03:42:25;61661.06;;;11.00;86.19
50430;BME280;36359;41.556;-8.418;2023-11-22T03:44:52;61695.75;;;11.31;85.61
50430;BME280;36359;41.556;-8.418;2023-11-22T03:47:23;61690.91;;;11.29;84.52
50430;BME280;36359;41.556;-8.418;2023-11-22T03:49:49;61671.19;;;11.10;85.97
50430;BME280;36359;41.556;-8.418;2023-11-22T03:52:15;61652.53;;;10.92;84.81
50430;BME280;36359;41.556;-8.418;2023-11-22T03:54:41;61671.22;;;11.05;84.79
50430;BME280;36359;41.556;-8.418;2023-11-22T03:57:06;61672.28;;;11.06;83.98
50430;BME280;36359;41.556;-8.418;2023-11-22T03:59:34;61650.94;;;10.88;83.90
50430;BME280;36359;41.556;-8.418;2023-11-22T04:02:00;61624.84;;;10.60;86.08
50430;BME280;36359;41.556;-8.418;2023-11-22T04:04:25;61615.28;;;10.51;88.25
50430;BME280;36359;41.556;-8.418;2023-11-22T04:06:51;61604.03;;;10.45;87.33
50430;BME280;36359;41.556;-8.418;2023-11-22T04:09:18;61579.00;;;10.19;88.25
50430;BME280;36359;41.556;-8.418;2023-11-22T04:11:46;61512.41;;;9.55;93.37
50430;BME280;36359;41.556;-8.418;2023-11-22T04:14:13;61553.97;;;9.95;91.46
50430;BME280;36359;41.556;-8.418;2023-11-22T04:16:38;61593.41;;;10.33;90.53
50430;BME280;36359;41.556;-8.418;2023-11-22T04:19:04;61608.31;;;10.47;87.51
50430;BME280;36359;41.556;-8.418;2023-11-22T04:21:30;61610.94;;;10.52;87.12
50430;BME280;36359;41.556;-8.418;2023-11-22T04:23:56;61633.34;;;10.74;96.06
50430;BME280;36359;41.556;-8.418;2023-11-22T04:26:21;61631.22;;;10.72;87.27
50430;BME280;36359;41.556;-8.418;2023-11-22T04:28:47;61623.75;;;10.64;88.30
50430;BME280;36359;41.556;-8.418;2023-11-22T04:31:13;61641.94;;;10.77;87.20
50430;BME280;36359;41.556;-8.418;2023-11-22T04:33:38;61618.44;;;10.59;87.17
50430;BME280;36359;41.556;-8.418;2023-11-22T04:36:04;61619.53;;;10.55;86.84
50430;BME280;36359;41.556;-8.418;2023-11-22T04:38:30;61617.91;;;10.56;87.29
50430;BME280;36359;41.556;-8.418;2023-11-22T04:40:56;61634.44;;;10.69;88.77
50430;BME280;36359;41.556;-8.418;2023-11-22T04:43:22;61623.75;;;10.64;88.36
50430;BME280;36359;41.556;-8.418;2023-11-22T04:45:48;61632.88;;;10.68;94.19
50430;BME280;36359;41.556;-8.418;2023-11-22T04:48:15;61625.91;;;10.64;87.61
50430;BME280;36359;41.556;-8.418;2023-11-22T04:50:42;61612.56;;;10.54;87.03
50430;BME280;36359;41.556;-8.418;2023-11-22T04:53:10;61621.13;;;10.59;89.22
50430;BME280;36359;41.556;-8.418;2023-11-22T04:55:36;61618.44;;;10.59;87.97
50430;BME280;36359;41.556;-8.418;2023-11-22T04:58:02;61600.31;;;10.39;86.82
50430;BME280;36359;41.556;-8.418;2023-11-22T05:00:28;61587.53;;;10.24;86.91
50430;BME280;36359;41.556;-8.418;2023-11-22T05:02:54;61594.44;;;10.36;88.37
50430;BME280;36359;41.556;-8.418;2023-11-22T05:05:20;61579.53;;;10.19;87.75
50430;BME280;36359;41.556;-8.418;2023-11-22T05:07:46;61582.16;;;10.24;89.08
50430;BME280;36359;41.556;-8.418;2023-11-22T05:10:13;61593.94;;;10.31;88.53
50430;BME280;36359;41.556;-8.418;2023-11-22T05:12:39;61593.94;;;10.33;87.96
50430;BME280;36359;41.556;-8.418;2023-11-22T05:15:06;61599.22;;;10.41;87.88
50430;BME280;36359;41.556;-8.418;2023-11-22T05:17:33;61592.84;;;10.32;86.51
50430;BME280;36359;41.556;-8.418;2023-11-22T05:19:58;61607.78;;;10.46;87.75
50430;BME280;36359;41.556;-8.418;2023-11-22T05:22:24;61593.94;;;10.33;86.40
50430;BME280;36359;41.556;-8.418;2023-11-22T05:24:50;61576.84;;;10.19;87.70
50430;BME280;36359;41.556;-8.418;2023-11-22T05:27:17;61597.66;;;10.37;91.14
50430;BME280;36359;41.556;-8.418;2023-11-22T05:29:43;61592.31;;;10.32;88.68
50430;BME280;36359;41.556;-8.418;2023-11-22T05:32:09;61582.22;;;10.19;88.40
50430;BME280;36359;41.556;-8.418;2023-11-22T05:34:34;61576.34;;;10.14;88.13
50430;BME280;36359;41.556;-8.418;2023-11-22T05:37:00;61570.47;;;10.11;88.67
50430;BME280;36359;41.556;-8.418;2023-11-22T05:39:26;61570.47;;;10.08;89.87
50430;BME280;36359;41.556;-8.418;2023-11-22T05:41:52;61565.13;;;10.06;89.92
50430;BME280;36359;41.556;-8.418;2023-11-22T05:44:18;61553.38;;;9.97;89.52
50430;BME280;36359;41.556;-8.418;2023-11-22T05:46:44;61557.69;;;9.96;88.70
50430;BME280;36359;41.556;-8.418;2023-11-22T05:49:10;61551.84;;;9.90;89.08
50430;BME280;36359;41.556;-8.418;2023-11-22T05:51:36;61590.16;;;10.32;95.42
50430;BME280;36359;41.556;-8.418;2023-11-22T05:54:04;61567.78;;;10.08;90.22
50430;BME280;36359;41.556;-8.418;2023-11-22T05:56:30;61558.22;;;9.99;89.61
50430;BME280;36359;41.556;-8.418;2023-11-22T05:58:57;61549.16;;;9.90;93.82
50430;BME280;36359;41.556;-8.418;2023-11-22T06:01:23;61537.41;;;9.82;92.60
50430;BME280;36359;41.556;-8.418;2023-11-22T06:03:48;61544.38;;;9.86;91.04
50430;BME280;36359;41.556;-8.418;2023-11-22T06:06:14;61529.47;;;9.71;91.21
50430;BME280;36359;41.556;-8.418;2023-11-22T06:08:40;61532.66;;;9.74;89.49
50430;BME280;36359;41.556;-8.418;2023-11-22T06:11:06;61525.16;;;9.70;89.82
50430;BME280;36359;41.556;-8.418;2023-11-22T06:13:33;61542.78;;;9.82;91.83
50430;BME280;36359;41.556;-8.418;2023-11-22T06:15:58;61594.44;;;10.36;95.18
50430;BME280;36359;41.556;-8.418;2023-11-22T06:18:24;61606.19;;;10.45;88.35
50430;BME280;36359;41.556;-8.418;2023-11-22T06:20:58;61583.22;;;10.26;88.04
50430;BME280;36359;41.556;-8.418;2023-11-22T06:23:24;61548.66;;;9.87;89.33
50430;BME280;36359;41.556;-8.418;2023-11-22T06:25:49;61560.88;;;10.01;89.90
50430;BME280;36359;41.556;-8.418;2023-11-22T06:28:15;61532.66;;;9.74;90.42
50430;BME280;36359;41.556;-8.418;2023-11-22T06:30:41;61542.25;;;9.84;90.32
50430;BME280;36359;41.556;-8.418;2023-11-22T06:33:07;61560.91;;;9.99;90.24
50430;BME280;36359;41.556;-8.418;2023-11-22T06:35:33;61579.00;;;10.16;90.45
50430;BME280;36359;41.556;-8.418;2023-11-22T06:37:59;61567.25;;;10.10;89.29
50430;BME280;36359;41.556;-8.418;2023-11-22T06:40:24;61563.00;;;10.04;89.79
50430;BME280;36359;41.556;-8.418;2023-11-22T06:42:50;61577.38;;;10.17;89.21
50430;BME280;36359;41.556;-8.418;2023-11-22T06:45:16;61558.72;;;10.02;89.38
50430;BME280;36359;41.556;-8.418;2023-11-22T06:47:43;61568.88;;;10.09;89.62
50430;BME280;36359;41.556;-8.418;2023-11-22T06:50:10;61606.69;;;10.48;90.22
50430;BME280;36359;41.556;-8.418;2023-11-22T06:52:37;61589.66;;;10.29;91.84
50430;BME280;36359;41.556;-8.418;2023-11-22T06:55:04;61570.47;;;10.11;88.27
50430;BME280;36359;41.556;-8.418;2023-11-22T06:57:30;61551.81;;;9.93;91.08
50430;BME280;36359;41.556;-8.418;2023-11-22T06:59:57;61526.78;;;9.71;91.38
50430;BME280;36359;41.556;-8.418;2023-11-22T07:02:22;61502.84;;;9.43;91.86
50430;BME280;36359;41.556;-8.418;2023-11-22T07:04:48;61501.78;;;9.45;92.72
50430;BME280;36359;41.556;-8.418;2023-11-22T07:22:50;61612.03;;;10.53;88.25
50430;BME280;36359;41.556;-8.418;2023-11-22T07:25:23;61594.44;;;10.36;89.04
50430;BME280;36359;41.556;-8.418;2023-11-22T07:27:52;61593.38;;;10.35;89.97
50430;BME280;36359;41.556;-8.418;2023-11-22T07:30:20;61581.63;;;10.24;88.28
50430;BME280;36359;41.556;-8.418;2023-11-22T07:32:50;61481.53;;;9.25;93.59
50430;BME280;36359;41.556;-8.418;2023-11-22T07:35:17;61622.69;;;10.61;99.12
50430;BME280;36359;41.556;-8.418;2023-11-22T07:37:46;61637.09;;;10.75;91.13
50430;BME280;36359;41.556;-8.418;2023-11-22T07:40:13;61592.34;;;10.29;91.63
50430;BME280;36359;41.556;-8.418;2023-11-22T07:42:42;61591.78;;;10.31;89.18
50430;BME280;36359;41.556;-8.418;2023-11-22T07:45:09;61587.00;;;10.27;88.71
50430;BME280;36359;41.556;-8.418;2023-11-22T07:47:37;61589.09;;;10.31;89.86
50430;BME280;36359;41.556;-8.418;2023-11-22T07:50:12;61580.06;;;10.17;88.08
50430;BME280;36359;41.556;-8.418;2023-11-22T07:55:11;61577.94;;;10.18;89.75
50430;BME280;36359;41.556;-8.418;2023-11-22T07:57:37;61584.34;;;10.21;88.69
50430;BME280;36359;41.556;-8.418;2023-11-22T08:00:04;61595.00;;;10.32;90.01
50430;BME280;36359;41.556;-8.418;2023-11-22T08:02:37;61561.94;;;10.02;90.09
50430;BME280;36359;41.556;-8.418;2023-11-22T08:21:41;61539.03;;;9.81;93.37
50430;BME280;36359;41.556;-8.418;2023-11-22T08:24:45;61527.84;;;9.70;93.17
50430;BME280;36359;41.556;-8.418;2023-11-22T08:27:12;61565.69;;;10.06;93.72
50430;BME280;36359;41.556;-8.418;2023-11-22T08:29:39;61702.16;;;11.34;96.96
50430;BME280;36359;41.556;-8.418;2023-11-22T08:32:06;61851.03;;;12.82;98.01
50430;BME280;36359;41.556;-8.418;2023-11-22T08:34:32;61817.38;;;12.53;87.37
50430;BME280;36359;41.556;-8.418;2023-11-22T08:36:58;61794.44;;;12.28;83.49
50430;BME280;36359;41.556;-8.418;2023-11-22T08:39:24;61742.16;;;11.75;83.55
50430;BME280;36359;41.556;-8.418;2023-11-22T08:41:50;61772.09;;;12.01;89.67
50430;BME280;36359;41.556;-8.418;2023-11-22T08:44:16;61732.56;;;11.66;86.61
50430;BME280;36359;41.556;-8.418;2023-11-22T08:46:41;61727.75;;;11.62;86.16
50430;BME280;36359;41.556;-8.418;2023-11-22T08:49:07;61690.41;;;11.26;86.42
50430;BME280;36359;41.556;-8.418;2023-11-22T08:51:33;61691.50;;;11.24;87.03
50430;BME280;36359;41.556;-8.418;2023-11-22T08:53:59;61744.31;;;11.75;96.20
50430;BME280;36359;41.556;-8.418;2023-11-22T08:56:25;61737.38;;;11.71;89.62
50430;BME280;36359;41.556;-8.418;2023-11-22T08:58:51;61740.00;;;11.76;87.60
50430;BME280;36359;41.556;-8.418;2023-11-22T09:01:17;61733.06;;;11.69;87.46
50430;BME280;36359;41.556;-8.418;2023-11-22T09:03:44;61701.09;;;11.36;88.94
50430;BME280;36359;41.556;-8.418;2023-11-22T09:06:10;61719.22;;;11.53;85.19
50430;BME280;36359;41.556;-8.418;2023-11-22T09:08:35;61731.47;;;11.68;85.26
50430;BME280;36359;41.556;-8.418;2023-11-22T09:11:02;61734.66;;;11.71;84.70
50430;BME280;36359;41.556;-8.418;2023-11-22T09:13:31;61792.81;;;12.29;87.82
50430;BME280;36359;41.556;-8.418;2023-11-22T09:15:58;61817.44;;;12.47;86.30
50430;BME280;36359;41.556;-8.418;2023-11-22T09:18:23;61855.88;;;12.84;87.80
50430;BME280;36359;41.556;-8.418;2023-11-22T09:20:49;61830.25;;;12.60;82.63
50430;BME280;36359;41.556;-8.418;2023-11-22T09:25:46;61825.94;;;12.58;84.95
50430;BME280;36359;41.556;-8.418;2023-11-22T09:28:12;61846.25;;;12.78;86.54
50430;BME280;36359;41.556;-8.418;2023-11-22T09:30:41;61912.53;;;13.38;88.08
50430;BME280;36359;41.556;-8.418;2023-11-22T09:33:13;61984.63;;;14.13;82.23
50430;BME280;36359;41.556;-8.418;2023-11-22T09:35:44;61970.75;;;13.97;82.32
50430;BME280;36359;41.556;-8.418;2023-11-22T09:38:10;61975.00;;;14.03;80.27
50430;BME280;36359;41.556;-8.418;2023-11-22T09:40:46;61909.84;;;13.38;80.06
50430;BME280;36359;41.556;-8.418;2023-11-22T09:43:14;61906.06;;;13.37;81.16
50430;BME280;36359;41.556;-8.418;2023-11-22T09:45:44;61868.13;;;12.99;82.39
50430;BME280;36359;41.556;-8.418;2023-11-22T09:48:20;61878.28;;;13.08;81.88
50430;BME280;36359;41.556;-8.418;2023-11-22T09:55:53;61899.16;;;13.26;80.55
50430;BME280;36359;41.556;-8.418;2023-11-22T09:58:20;61925.84;;;13.56;82.57
50430;BME280;36359;41.556;-8.418;2023-11-22T10:00:47;61994.81;;;14.20;84.91
50430;BME280;36359;41.556;-8.418;2023-11-22T10:03:13;61985.72;;;14.11;79.11
50430;BME280;36359;41.556;-8.418;2023-11-22T10:05:41;62006.03;;;14.30;80.47
50430;BME280;36359;41.556;-8.418;2023-11-22T10:08:08;62003.88;;;14.31;81.15
50430;BME280;36359;41.556;-8.418;2023-11-22T10:10:36;61991.06;;;14.16;77.86
50430;BME280;36359;41.556;-8.418;2023-11-22T10:13:03;62033.88;;;14.57;82.80
50430;BME280;36359;41.556;-8.418;2023-11-22T10:15:29;62053.13;;;14.75;78.09
50430;BME280;36359;41.556;-8.418;2023-11-22T10:17:59;62083.63;;;15.05;78.09
50430;BME280;36359;41.556;-8.418;2023-11-22T10:20:41;62102.34;;;15.22;79.08
50430;BME280;36359;41.556;-8.418;2023-11-22T10:23:11;62052.06;;;14.74;74.86
50430;BME280;36359;41.556;-8.418;2023-11-22T10:25:44;62080.91;;;15.07;82.31
50430;BME280;36359;41.556;-8.418;2023-11-22T10:28:14;62084.66;;;15.08;78.66
50430;BME280;36359;41.556;-8.418;2023-11-22T10:30:40;62075.59;;;14.97;76.40
50430;BME280;36359;41.556;-8.418;2023-11-22T10:33:06;62062.25;;;14.82;74.25
50430;BME280;36359;41.556;-8.418;2023-11-22T10:35:32;62159.66;;;15.80;82.92
50430;BME280;36359;41.556;-8.418;2023-11-22T10:38:01;62257.13;;;16.73;79.96
50430;BME280;36359;41.556;-8.418;2023-11-22T10:40:32;62205.75;;;16.19;71.77
50430;BME280;36359;41.556;-8.418;2023-11-22T10:42:57;62170.88;;;15.90;73.60
50430;BME280;36359;41.556;-8.418;2023-11-22T10:45:27;62140.91;;;15.59;70.45
50430;BME280;36359;41.556;-8.418;2023-11-22T10:47:56;62141.97;;;15.60;76.03
50430;BME280;36359;41.556;-8.418;2023-11-22T10:50:22;62169.78;;;15.92;74.96
50430;BME280;36359;41.556;-8.418;2023-11-22T10:52:51;62150.03;;;15.68;75.15
50430;BME280;36359;41.556;-8.418;2023-11-22T10:55:21;62138.22;;;15.57;71.61
50430;BME280;36359;41.556;-8.418;2023-11-22T10:57:53;62157.00;;;15.75;75.85
50430;BME280;36359;41.556;-8.418;2023-11-22T11:00:21;62180.59;;;15.95;76.19
50430;BME280;36359;41.556;-8.418;2023-11-22T11:02:53;62230.34;;;16.47;77.34
50430;BME280;36359;41.556;-8.418;2023-11-22T11:05:30;62233.63;;;16.45;75.24
50430;BME280;36359;41.556;-8.418;2023-11-22T11:08:09;62205.72;;;16.21;71.68
50430;BME280;36359;41.556;-8.418;2023-11-22T11:10:41;62189.09;;;16.08;73.02
50430;BME280;36359;41.556;-8.418;2023-11-22T11:13:08;62161.81;;;15.79;73.81
50430;BME280;36359;41.556;-8.418;2023-11-22T11:15:43;62211.06;;;16.26;74.90
50430;BME280;36359;41.556;-8.418;2023-11-22T11:18:13;62223.38;;;16.41;75.26
50430;BME280;36359;41.556;-8.418;2023-11-22T11:20:55;62220.19;;;16.35;75.16
50430;BME280;36359;41.556;-8.418;2023-11-22T11:23:28;62250.72;;;16.64;74.48
50430;BME280;36359;41.556;-8.418;2023-11-22T11:26:15;62244.84;;;16.58;74.70
50430;BME280;36359;41.556;-8.418;2023-11-22T11:28:49;62237.88;;;16.52;68.67
50430;BME280;36359;41.556;-8.418;2023-11-22T11:31:21;62211.03;;;16.29;73.09
50430;BME280;36359;41.556;-8.418;2023-11-22T11:36:28;62227.69;;;16.42;68.16
50430;BME280;36359;41.556;-8.418;2023-11-22T11:38:56;62209.47;;;16.25;67.93
50430;BME280;36359;41.556;-8.418;2023-11-22T11:41:31;62206.25;;;16.22;67.82
50430;BME280;36359;41.556;-8.418;2023-11-22T11:43:58;62190.19;;;16.06;67.50
50430;BME280;36359;41.556;-8.418;2023-11-22T11:46:26;62226.63;;;16.41;72.13
50430;BME280;36359;41.556;-8.418;2023-11-22T11:48:53;62211.56;;;16.29;69.83
50430;BME280;36359;41.556;-8.418;2023-11-22T11:51:26;62186.94;;;16.06;68.47
50430;BME280;36359;41.556;-8.418;2023-11-22T11:53:53;62188.59;;;16.05;68.60
50430;BME280;36359;41.556;-8.418;2023-11-22T11:56:19;62174.66;;;15.92;66.04
50430;BME280;36359;41.556;-8.418;2023-11-22T11:58:46;62186.50;;;16.00;65.42
50430;BME280;36359;41.556;-8.418;2023-11-22T12:01:13;62191.75;;;16.10;68.29
50430;BME280;36359;41.556;-8.418;2023-11-22T12:03:42;62197.13;;;16.16;66.43
50430;BME280;36359;41.556;-8.418;2023-11-22T12:06:09;62193.94;;;16.10;64.68
50430;BME280;36359;41.556;-8.418;2023-11-22T12:08:35;62189.63;;;16.08;71.59
50430;BME280;36359;41.556;-8.418;2023-11-22T12:11:04;62227.19;;;16.39;71.49
50430;BME280;36359;41.556;-8.418;2023-11-22T12:13:34;62208.41;;;16.24;63.43
50430;BME280;36359;41.556;-8.418;2023-11-22T12:16:06;62207.34;;;16.23;64.52
50430;BME280;36359;41.556;-8.418;2023-11-22T12:18:49;62243.25;;;16.57;70.17
50430;BME280;36359;41.556;-8.418;2023-11-22T12:21:16;62252.84;;;16.69;68.23
50430;BME280;36359;41.556;-8.418;2023-11-22T12:23:43;62219.66;;;16.34;63.00
50430;BME280;36359;41.556;-8.418;2023-11-22T12:26:16;62210.00;;;16.25;65.14
50430;BME280;36359;41.556;-8.418;2023-11-22T12:28:47;62212.69;;;16.28;67.01
50430;BME280;36359;41.556;-8.418;2023-11-22T12:31:14;62207.34;;;16.23;64.46
50430;BME280;36359;41.556;-8.418;2023-11-22T12:33:41;62222.91;;;16.35;67.28
50430;BME280;36359;41.556;-8.418;2023-11-22T12:36:09;62221.31;;;16.33;64.19
50430;BME280;36359;41.556;-8.418;2023-11-22T12:38:36;62215.38;;;16.30;63.05
50430;BME280;36359;41.556;-8.418;2023-11-22T12:41:03;62219.63;;;16.37;63.30
50430;BME280;36359;41.556;-8.418;2023-11-22T12:43:29;62222.88;;;16.38;64.87
50430;BME280;36359;41.556;-8.418;2023-11-22T12:48:26;62242.63;;;16.62;72.57
50430;BME280;36359;41.556;-8.418;2023-11-22T12:50:56;62272.19;;;16.85;71.03
50430;BME280;36359;41.556;-8.418;2023-11-22T12:53:22;62266.84;;;16.79;67.84
50430;BME280;36359;41.556;-8.418;2023-11-22T12:55:49;62266.84;;;16.79;69.64
50430;BME280;36359;41.556;-8.418;2023-11-22T12:58:16;62240.56;;;16.54;62.31
50430;BME280;36359;41.556;-8.418;2023-11-22T13:00:44;62263.59;;;16.76;61.26
50430;BME280;36359;41.556;-8.418;2023-11-22T13:03:11;62268.41;;;16.84;64.57
50430;BME280;36359;41.556;-8.418;2023-11-22T13:05:37;62283.44;;;16.95;66.19
50430;BME280;36359;41.556;-8.418;2023-11-22T13:08:04;62268.97;;;16.82;70.58
50430;BME280;36359;41.556;-8.418;2023-11-22T13:10:30;62260.44;;;16.71;61.60
50430;BME280;36359;41.556;-8.418;2023-11-22T13:13:01;62260.38;;;16.76;66.51
50430;BME280;36359;41.556;-8.418;2023-11-22T13:15:30;62255.56;;;16.69;64.41
50430;BME280;36359;41.556;-8.418;2023-11-22T13:17:56;62254.44;;;16.70;64.04
50430;BME280;36359;41.556;-8.418;2023-11-22T13:20:23;62266.75;;;16.85;67.08
50430;BME280;36359;41.556;-8.418;2023-11-22T13:22:49;62275.94;;;16.88;64.75
50430;BME280;36359;41.556;-8.418;2023-11-22T13:25:16;62260.97;;;16.71;64.94
50430;BME280;36359;41.556;-8.418;2023-11-22T13:27:48;62257.13;;;16.73;64.01
50430;BME280;36359;41.556;-8.418;2023-11-22T13:30:17;62253.44;;;16.64;63.67
50430;BME280;36359;41.556;-8.418;2023-11-22T13:32:46;62242.69;;;16.56;63.95
50430;BME280;36359;41.556;-8.418;2023-11-22T13:35:12;62249.13;;;16.63;63.61
50430;BME280;36359;41.556;-8.418;2023-11-22T13:37:43;62255.56;;;16.69;64.64